Time;durP1;ratioP1;P1;durP2;ratioP2;P2;SDS_P1;SDS_P2;PMS_P1;PMS_P2;Temp;Humidity;BMP_temperature;BMP_pressure;BME280_temperature;BME280_humidity;BME280_pressure;Samples;Min_cycle;Max_cycle;Signal;HPM_P1;HPM_P2
2023/10/24 00:00:38;;;;;;;2.78;1.65;;;24.30;99.90;;;;;;5060596;22;20012;-45
2023/10/24 00:03:04;;;;;;;22.58;2.25;;;24.30;99.90;;;;;;5049571;28;20029;-45
2023/10/24 00:05:30;;;;;;;3.30;1.65;;;24.20;99.90;;;;;;5049353;28;20512;-46
2023/10/24 00:07:56;;;;;;;3.35;1.65;;;24.20;99.90;;;;;;5049444;28;20029;-45
2023/10/24 00:10:23;;;;;;;3.25;1.45;;;24.20;99.90;;;;;;5038830;28;20025;-46
2023/10/24 00:12:50;;;;;;;3.08;1.40;;;24.20;99.90;;;;;;5049178;28;20112;-45
2023/10/24 00:15:16;;;;;;;2.63;1.73;;;24.20;99.90;;;;;;5050601;28;20068;-45
2023/10/24 00:17:42;;;;;;;3.40;1.75;;;24.20;99.90;;;;;;5032548;28;20028;-45
2023/10/24 00:20:09;;;;;;;6.18;1.95;;;24.20;99.90;;;;;;5049669;28;20032;-45
2023/10/24 00:22:35;;;;;;;2.67;1.50;;;24.20;99.90;;;;;;5049703;28;20056;-45
2023/10/24 00:25:01;;;;;;;5.10;1.88;;;24.20;99.90;;;;;;5044146;28;20072;-46
2023/10/24 00:27:27;;;;;;;2.83;1.60;;;24.20;99.90;;;;;;5039889;28;20435;-47
2023/10/24 00:29:52;;;;;;;5.20;1.30;;;24.20;99.90;;;;;;5042321;28;20083;-46
2023/10/24 00:32:18;;;;;;;2.33;1.55;;;24.20;99.90;;;;;;5046390;28;20488;-45
2023/10/24 00:34:44;;;;;;;1.85;1.50;;;24.20;99.90;;;;;;5037851;28;20096;-46
2023/10/24 00:37:10;;;;;;;3.90;1.35;;;24.20;99.90;;;;;;5033262;28;20017;-47
2023/10/24 00:39:36;;;;;;;2.60;1.65;;;24.10;99.90;;;;;;5051392;28;20029;-47
2023/10/24 00:42:04;;;;;;;5.03;1.48;;;24.10;99.90;;;;;;5047900;28;20049;-48
2023/10/24 00:44:32;;;;;;;2.90;1.48;;;24.20;99.90;;;;;;5041832;28;20100;-48
2023/10/24 00:46:58;;;;;;;5.18;2.00;;;24.10;99.90;;;;;;5051381;28;20040;-48
2023/10/24 00:49:24;;;;;;;2.95;1.30;;;24.10;99.90;;;;;;5051815;28;20083;-49
2023/10/24 00:51:52;;;;;;;3.15;1.35;;;24.10;99.90;;;;;;5050977;28;20484;-45
2023/10/24 00:54:18;;;;;;;;;;;24.10;99.90;;;;;;5048851;28;20080;-45
2023/10/24 00:56:46;;;;;;;2.85;1.35;;;24.10;99.90;;;;;;5049562;28;20342;-45
2023/10/24 00:59:14;;;;;;;3.35;1.63;;;24.10;99.90;;;;;;5047222;28;20022;-45
2023/10/24 01:01:40;;;;;;;4.32;1.58;;;24.10;99.90;;;;;;5055929;23;20059;-51
2023/10/24 01:04:06;;;;;;;3.92;1.40;;;24.00;99.90;;;;;;5054710;28;20284;-51
2023/10/24 01:06:31;;;;;;;2.85;1.60;;;24.00;99.90;;;;;;5047746;28;20070;-52
2023/10/24 01:08:57;;;;;;;3.60;1.67;;;24.00;99.90;;;;;;5048859;28;20515;-51
2023/10/24 01:11:24;;;;;;;3.95;1.65;;;24.00;99.90;;;;;;5051533;28;20033;-52
2023/10/24 01:13:50;;;;;;;5.25;1.98;;;23.90;99.90;;;;;;5048858;28;20024;-52
2023/10/24 01:16:18;;;;;;;2.90;1.60;;;23.90;99.90;;;;;;5047134;28;20040;-52
2023/10/24 01:18:44;;;;;;;3.35;1.73;;;23.90;99.90;;;;;;5032465;28;20028;-52
2023/10/24 01:21:10;;;;;;;3.72;1.70;;;23.90;99.90;;;;;;5051028;28;20070;-52
2023/10/24 01:23:36;;;;;;;4.65;2.35;;;23.90;99.90;;;;;;5051465;28;20040;-52
2023/10/24 01:26:03;;;;;;;3.95;2.35;;;23.90;99.90;;;;;;5053926;28;20020;-52
2023/10/24 01:28:29;;;;;;;4.88;2.38;;;23.80;99.90;;;;;;5054423;28;20082;-52
2023/10/24 01:30:55;;;;;;;4.55;2.28;;;23.90;99.90;;;;;;5048638;28;20025;-53
2023/10/24 01:33:22;;;;;;;3.47;2.17;;;23.80;99.90;;;;;;5033576;28;20040;-52
2023/10/24 01:35:48;;;;;;;4.70;2.20;;;23.80;99.90;;;;;;5055744;28;20488;-52
2023/10/24 01:38:14;;;;;;;4.63;2.08;;;23.80;99.90;;;;;;5057108;28;20048;-52
2023/10/24 01:40:40;;;;;;;5.30;2.70;;;23.70;99.90;;;;;;5061300;28;20021;-53
2023/10/24 01:43:06;;;;;;;4.03;3.03;;;23.70;99.90;;;;;;5057567;28;20035;-53
2023/10/24 01:45:31;;;;;;;4.22;2.78;;;23.70;99.90;;;;;;5059605;28;20025;-52
2023/10/24 01:47:58;;;;;;;5.88;3.08;;;23.70;99.90;;;;;;5041633;28;20446;-54
2023/10/24 01:50:24;;;;;;;4.75;2.80;;;23.70;99.90;;;;;;5057488;28;20032;-53
2023/10/24 01:52:49;;;;;;;5.13;2.80;;;23.70;99.90;;;;;;5061170;28;20024;-53
2023/10/24 01:55:15;;;;;;;5.97;3.28;;;23.70;99.90;;;;;;5056867;28;20013;-52
2023/10/24 01:57:41;;;;;;;5.82;2.88;;;23.70;99.90;;;;;;5061173;28;20368;-52
2023/10/24 02:00:07;;;;;;;5.20;2.90;;;23.70;99.90;;;;;;5057125;28;20388;-52
2023/10/24 02:02:33;;;;;;;5.40;2.95;;;23.70;99.90;;;;;;5065078;22;20061;-45
2023/10/24 02:04:59;;;;;;;4.85;2.70;;;23.70;99.90;;;;;;5055248;28;20593;-46
2023/10/24 02:07:27;;;;;;;6.82;2.90;;;23.70;99.90;;;;;;5055200;28;20036;-46
2023/10/24 02:09:53;;;;;;;5.95;2.80;;;23.70;99.90;;;;;;5055054;28;20048;-46
2023/10/24 02:12:19;;;;;;;6.45;2.85;;;23.70;99.90;;;;;;5055177;28;20033;-47
2023/10/24 02:14:46;;;;;;;8.38;3.38;;;23.70;99.90;;;;;;5054863;28;20366;-46
2023/10/24 02:17:11;;;;;;;4.18;2.40;;;23.70;99.90;;;;;;5046403;28;20116;-46
2023/10/24 02:19:37;;;;;;;5.05;2.50;;;23.60;99.90;;;;;;5055086;28;20512;-47
2023/10/24 02:22:03;;;;;;;5.70;2.75;;;23.60;99.90;;;;;;5054794;28;20412;-46
2023/10/24 02:24:29;;;;;;;3.72;2.33;;;23.60;99.90;;;;;;5055072;28;20136;-46
2023/10/24 02:26:55;;;;;;;3.65;2.20;;;23.60;99.90;;;;;;5054626;28;20410;-45
2023/10/24 02:29:21;;;;;;;4.22;2.53;;;23.60;99.90;;;;;;5054863;28;20033;-46
2023/10/24 02:31:46;;;;;;;4.68;2.63;;;23.60;99.90;;;;;;5054770;28;20096;-45
2023/10/24 02:34:12;;;;;;;5.50;2.50;;;23.60;99.90;;;;;;5054917;28;20392;-46
2023/10/24 02:36:38;;;;;;;3.70;2.53;;;23.60;99.90;;;;;;5054845;28;20511;-45
2023/10/24 02:39:04;;;;;;;3.50;2.30;;;23.60;99.90;;;;;;5054697;28;20118;-46
2023/10/24 02:41:30;;;;;;;3.45;2.50;;;23.60;99.90;;;;;;5055074;28;20032;-45
2023/10/24 02:43:55;;;;;;;5.90;2.78;;;23.60;99.90;;;;;;5036603;28;20385;-46
2023/10/24 02:46:21;;;;;;;3.90;2.60;;;23.60;99.90;;;;;;5054633;28;20048;-46
2023/10/24 02:48:47;;;;;;;4.32;2.80;;;23.60;99.90;;;;;;5036672;28;20024;-48
2023/10/24 02:51:13;;;;;;;3.00;2.38;;;23.60;99.90;;;;;;5054792;28;20377;-45
2023/10/24 02:53:39;;;;;;;4.25;2.25;;;23.60;99.90;;;;;;5054374;28;20504;-45
2023/10/24 02:56:05;;;;;;;3.10;2.15;;;23.60;99.90;;;;;;5054359;28;20025;-45
2023/10/24 02:58:31;;;;;;;6.05;2.58;;;23.50;99.90;;;;;;5054583;28;20079;-45
2023/10/24 03:01:05;;;;;;;6.03;2.30;;;23.50;99.90;;;;;;5054440;28;20552;-45
2023/10/24 03:03:32;;;;;;;3.08;2.22;;;23.50;99.90;;;;;;5054659;28;20033;-45
2023/10/24 03:05:58;;;;;;;3.45;2.00;;;23.50;99.90;;;;;;5054623;28;20025;-45
2023/10/24 03:08:39;;;;;;;3.03;2.15;;;23.50;99.90;;;;;;5010700;28;20089;-45
2023/10/24 03:11:05;;;;;;;3.50;2.25;;;23.50;99.90;;;;;;5036559;28;20083;-45
2023/10/24 03:13:30;;;;;;;3.35;2.00;;;23.50;99.90;;;;;;5053432;28;20095;-45
2023/10/24 03:16:02;;;;;;;5.10;2.22;;;23.50;99.90;;;;;;5053949;28;20033;-45
2023/10/24 03:18:30;;;;;;;4.13;2.47;;;23.50;99.90;;;;;;5054107;28;20067;-45
2023/10/24 03:20:59;;;;;;;2.90;1.90;;;23.50;99.90;;;;;;5053873;28;20385;-46
2023/10/24 03:23:25;;;;;;;3.15;2.42;;;23.50;99.90;;;;;;5054049;28;20824;-46
2023/10/24 03:25:52;;;;;;;3.30;2.00;;;23.50;99.90;;;;;;5054016;28;20025;-45
2023/10/24 03:28:18;;;;;;;3.47;2.10;;;23.50;99.90;;;;;;5053487;28;20029;-46
2023/10/24 03:30:43;;;;;;;3.42;2.17;;;23.50;99.90;;;;;;5053838;28;20155;-45
2023/10/24 03:33:10;;;;;;;3.05;1.83;;;23.50;99.90;;;;;;5053557;28;20033;-45
2023/10/24 03:35:36;;;;;;;4.13;2.33;;;23.50;99.90;;;;;;5053793;28;20027;-45
2023/10/24 03:38:02;;;;;;;2.65;1.65;;;23.50;99.90;;;;;;5053884;28;20103;-45
2023/10/24 03:40:29;;;;;;;3.55;1.88;;;23.50;99.90;;;;;;5053524;28;20013;-45
2023/10/24 03:42:54;;;;;;;5.50;2.35;;;23.50;99.90;;;;;;5053505;28;20057;-45
2023/10/24 03:45:21;;;;;;;3.97;1.75;;;23.50;99.90;;;;;;5053263;28;20131;-46
2023/10/24 03:47:48;;;;;;;2.38;1.90;;;23.50;99.90;;;;;;5053310;28;20071;-45
2023/10/24 03:50:15;;;;;;;1.75;1.42;;;23.50;99.90;;;;;;5035615;28;20472;-45
2023/10/24 03:52:42;;;;;;;4.43;2.00;;;23.50;99.90;;;;;;5039066;28;20041;-46
2023/10/24 03:55:11;;;;;;;3.20;1.73;;;23.50;99.90;;;;;;5057125;28;20408;-46
2023/10/24 03:57:38;;;;;;;3.13;1.52;;;23.50;99.90;;;;;;5051298;28;20419;-45
2023/10/24 04:00:08;;;;;;;2.13;1.50;;;23.50;99.90;;;;;;5031110;28;20397;-45
2023/10/24 04:02:35;;;;;;;5.03;1.95;;;23.50;99.90;;;;;;5038683;28;20044;-44
2023/10/24 04:05:00;;;;;;;3.33;1.77;;;23.50;99.90;;;;;;5045272;28;20025;-45
2023/10/24 04:07:26;;;;;;;3.58;1.88;;;23.50;99.90;;;;;;5051337;28;20388;-45
2023/10/24 04:09:52;;;;;;;3.58;1.70;;;23.50;99.90;;;;;;5043287;28;20401;-45
2023/10/24 04:12:18;;;;;;;3.00;1.70;;;23.50;99.90;;;;;;5052016;28;20040;-45
2023/10/24 04:14:43;;;;;;;3.83;1.67;;;23.50;99.90;;;;;;5052532;28;20021;-45
2023/10/24 04:17:09;;;;;;;3.42;1.70;;;23.50;99.90;;;;;;5051271;28;20216;-45
2023/10/24 04:19:35;;;;;;;4.25;1.42;;;23.50;99.90;;;;;;5039510;28;20031;-45
2023/10/24 04:22:02;;;;;;;5.47;1.50;;;23.50;99.90;;;;;;5055625;28;20021;-45
2023/10/24 04:24:28;;;;;;;2.97;1.63;;;23.50;99.90;;;;;;5033613;28;20029;-45
2023/10/24 04:26:54;;;;;;;1.95;1.40;;;23.50;99.90;;;;;;5049603;28;20032;-46
2023/10/24 04:29:21;;;;;;;4.97;1.70;;;23.50;99.90;;;;;;5044665;28;20388;-45
2023/10/24 04:31:47;;;;;;;1.88;1.15;;;23.50;99.90;;;;;;5046359;28;20017;-45
2023/10/24 04:34:13;;;;;;;4.55;1.80;;;23.50;99.90;;;;;;5050612;28;20124;-45
2023/10/24 04:36:39;;;;;;;3.88;1.65;;;23.50;99.90;;;;;;5043940;28;20096;-45
2023/10/24 04:39:05;;;;;;;3.17;1.63;;;23.50;99.90;;;;;;5042577;28;20115;-45
2023/10/24 04:41:31;;;;;;;6.30;1.73;;;23.50;99.90;;;;;;5041059;28;20032;-47
2023/10/24 04:43:57;;;;;;;4.00;1.83;;;23.40;99.90;;;;;;5051486;28;20021;-46
2023/10/24 04:46:23;;;;;;;3.40;1.30;;;23.50;99.90;;;;;;5038218;28;20096;-46
2023/10/24 04:48:49;;;;;;;2.08;1.38;;;23.40;99.90;;;;;;5056411;28;20032;-45
2023/10/24 04:51:15;;;;;;;3.90;1.80;;;23.50;99.90;;;;;;5051092;28;20086;-45
2023/10/24 04:53:41;;;;;;;4.38;1.90;;;23.50;99.90;;;;;;5050976;28;20021;-45
2023/10/24 04:56:07;;;;;;;3.45;1.92;;;23.40;99.90;;;;;;5038538;28;20031;-45
2023/10/24 04:58:33;;;;;;;3.30;1.85;;;23.40;99.90;;;;;;5055903;28;20100;-46
2023/10/24 05:00:59;;;;;;;3.63;2.13;;;23.40;99.90;;;;;;5050638;28;20567;-45
2023/10/24 05:03:25;;;;;;;4.45;1.73;;;23.40;99.90;;;;;;5046247;28;20021;-45
2023/10/24 05:05:51;;;;;;;5.53;1.50;;;23.40;99.90;;;;;;5047594;28;20357;-45
2023/10/24 05:08:17;;;;;;;2.90;1.73;;;23.40;99.90;;;;;;5063058;28;20078;-45
2023/10/24 05:10:42;;;;;;;4.63;2.08;;;23.40;99.90;;;;;;5049874;28;20021;-45
2023/10/24 05:13:08;;;;;;;3.78;1.70;;;23.40;99.90;;;;;;5041256;28;20063;-46
2023/10/24 05:15:34;;;;;;;4.47;1.45;;;23.40;99.90;;;;;;5051407;28;20452;-47
2023/10/24 05:18:00;;;;;;;2.70;1.52;;;23.40;99.90;;;;;;5052631;28;20272;-43
2023/10/24 05:20:25;;;;;;;5.57;1.75;;;23.40;99.90;;;;;;5051536;28;20017;-44
2023/10/24 05:22:51;;;;;;;4.97;1.85;;;23.40;99.90;;;;;;5035996;28;20029;-43
2023/10/24 05:25:17;;;;;;;4.40;1.80;;;23.40;99.90;;;;;;5034534;28;20061;-46
2023/10/24 05:27:43;;;;;;;3.85;2.55;;;23.40;99.90;;;;;;5049724;28;20032;-46
2023/10/24 05:30:12;;;;;;;2.20;1.90;;;23.40;99.90;;;;;;5013682;28;20036;-46
2023/10/24 05:32:38;;;;;;;5.80;2.15;;;23.40;99.90;;;;;;5044387;28;20036;-47
2023/10/24 05:35:04;;;;;;;2.90;1.70;;;23.40;99.90;;;;;;5051973;28;20028;-46
2023/10/24 05:37:30;;;;;;;5.47;2.05;;;23.40;99.90;;;;;;5052130;28;20473;-46
2023/10/24 05:39:56;;;;;;;3.47;1.77;;;23.40;99.90;;;;;;5046987;28;20171;-46
2023/10/24 05:42:22;;;;;;;3.95;2.17;;;23.30;99.90;;;;;;5059171;28;20595;-46
2023/10/24 05:44:48;;;;;;;4.80;2.63;;;23.40;99.90;;;;;;5064150;28;20032;-46
2023/10/24 05:47:14;;;;;;;2.88;1.77;;;23.40;99.90;;;;;;5035975;28;20108;-44
2023/10/24 05:49:40;;;;;;;4.78;2.53;;;23.40;99.90;;;;;;5042871;28;20063;-44
2023/10/24 05:52:06;;;;;;;5.25;1.88;;;23.30;99.90;;;;;;5050018;28;20025;-45
2023/10/24 05:54:32;;;;;;;4.00;1.88;;;23.40;99.90;;;;;;5053344;28;20024;-46
2023/10/24 05:56:58;;;;;;;4.75;1.92;;;23.30;99.90;;;;;;5052245;28;20020;-45
2023/10/24 05:59:26;;;;;;;5.82;2.42;;;23.30;99.90;;;;;;5040067;28;20469;-46
2023/10/24 06:01:52;;;;;;;6.38;2.10;;;23.30;99.90;;;;;;5037831;28;20121;-45
2023/10/24 06:04:18;;;;;;;3.00;1.73;;;23.30;99.90;;;;;;5053083;28;20021;-46
2023/10/24 06:06:43;;;;;;;3.97;2.22;;;23.30;99.90;;;;;;5030655;28;20041;-45
2023/10/24 06:09:12;;;;;;;4.40;1.98;;;23.30;99.90;;;;;;5051323;28;20024;-47
2023/10/24 06:11:41;;;;;;;4.55;1.75;;;23.30;99.90;;;;;;5054297;28;20492;-46
2023/10/24 06:14:08;;;;;;;7.95;2.15;;;23.30;99.90;;;;;;5053378;28;20116;-47
2023/10/24 06:16:34;;;;;;;3.63;1.90;;;23.30;99.90;;;;;;5041832;28;20032;-45
2023/10/24 06:19:00;;;;;;;7.28;2.33;;;23.30;99.90;;;;;;5056640;28;20028;-45
2023/10/24 06:21:26;;;;;;;4.15;2.03;;;23.30;99.90;;;;;;5036253;28;20100;-45
2023/10/24 06:23:53;;;;;;;3.50;2.15;;;23.30;99.90;;;;;;5052879;28;20044;-46
2023/10/24 06:26:19;;;;;;;5.50;2.70;;;23.30;99.90;;;;;;5038253;28;20386;-48
2023/10/24 06:28:46;;;;;;;4.13;2.10;;;23.30;99.90;;;;;;5061965;28;20029;-45
2023/10/24 06:31:12;;;;;;;6.13;2.20;;;23.30;99.90;;;;;;5034903;28;20117;-45
2023/10/24 06:33:40;;;;;;;3.08;1.67;;;23.30;99.90;;;;;;5048469;28;20033;-47
2023/10/24 06:36:06;;;;;;;7.57;2.45;;;23.30;99.90;;;;;;5029127;28;20422;-46
2023/10/24 06:38:32;;;;;;;5.00;2.30;;;23.30;99.90;;;;;;5058559;28;20025;-46
2023/10/24 06:40:58;;;;;;;6.00;2.10;;;23.30;99.90;;;;;;5053874;28;20047;-47
2023/10/24 06:43:26;;;;;;;8.23;2.13;;;23.20;99.90;;;;;;5042041;28;20143;-45
2023/10/24 06:45:51;;;;;;;5.22;2.42;;;23.30;99.90;;;;;;5056700;28;20024;-44
2023/10/24 06:48:18;;;;;;;5.05;2.28;;;23.20;99.90;;;;;;5052183;28;20029;-45
2023/10/24 06:50:44;;;;;;;6.13;2.80;;;23.30;99.90;;;;;;5052506;28;20013;-46
2023/10/24 06:53:11;;;;;;;6.18;2.08;;;23.30;99.90;;;;;;5035812;28;20037;-46
2023/10/24 06:55:37;;;;;;;5.43;2.25;;;23.20;99.90;;;;;;5062808;28;20070;-46
2023/10/24 06:58:03;;;;;;;5.90;2.42;;;23.20;99.90;;;;;;5053053;28;20028;-45
2023/10/24 07:00:30;;;;;;;4.07;1.98;;;23.30;99.90;;;;;;5049386;28;20025;-45
2023/10/24 07:02:56;;;;;;;7.40;2.25;;;23.30;99.90;;;;;;5040908;28;20127;-47
2023/10/24 07:05:22;;;;;;;6.65;1.90;;;23.30;99.90;;;;;;5053596;28;20108;-47
2023/10/24 07:07:48;;;;;;;4.40;1.85;;;23.30;99.90;;;;;;5052482;28;20025;-45
2023/10/24 07:10:14;;;;;;;3.30;2.00;;;23.30;99.90;;;;;;5028502;28;20025;-45
2023/10/24 07:12:40;;;;;;;4.22;2.00;;;23.30;99.90;;;;;;5054038;28;20055;-47
2023/10/24 07:15:07;;;;;;;3.20;2.08;;;23.30;99.90;;;;;;5052550;28;20103;-47
2023/10/24 07:17:33;;;;;;;5.65;2.55;;;23.30;99.90;;;;;;5051770;28;20017;-46
2023/10/24 07:19:59;;;;;;;4.00;2.40;;;23.30;99.90;;;;;;5043959;28;20039;-46
2023/10/24 07:22:28;;;;;;;5.68;2.47;;;23.30;99.90;;;;;;5065206;28;20029;-46
2023/10/24 07:24:54;;;;;;;3.13;2.03;;;23.30;99.90;;;;;;5053210;28;20092;-46
2023/10/24 07:27:21;;;;;;;7.05;1.98;;;23.40;99.90;;;;;;5031926;28;20586;-45
2023/10/24 07:29:47;;;;;;;4.85;2.13;;;23.40;99.90;;;;;;5041725;28;20051;-46
2023/10/24 07:32:13;;;;;;;4.80;2.50;;;23.40;99.90;;;;;;5062386;28;20480;-46
2023/10/24 07:34:41;;;;;;;5.75;2.38;;;23.40;99.90;;;;;;5053255;28;20115;-46
2023/10/24 07:37:08;;;;;;;5.00;2.20;;;23.50;99.90;;;;;;5048629;28;20547;-46
2023/10/24 07:39:34;;;;;;;6.93;2.73;;;23.50;99.90;;;;;;5047784;28;20028;-46
2023/10/24 07:42:00;;;;;;;4.95;2.38;;;23.50;99.90;;;;;;5057175;28;20080;-46
2023/10/24 07:44:26;;;;;;;6.25;2.30;;;23.50;99.90;;;;;;5051710;28;20493;-46
2023/10/24 07:46:52;;;;;;;5.85;2.53;;;23.60;99.90;;;;;;5038115;28;20120;-46
2023/10/24 07:49:18;;;;;;;4.43;2.35;;;23.60;99.90;;;;;;5056763;28;20104;-46
2023/10/24 07:51:44;;;;;;;3.42;1.85;;;23.60;99.90;;;;;;5053337;28;20350;-46
2023/10/24 07:54:11;;;;;;;5.72;2.45;;;23.60;99.90;;;;;;5052968;28;20082;-46
2023/10/24 07:56:41;;;;;;;4.95;2.22;;;23.70;99.90;;;;;;5026058;28;20495;-46
2023/10/24 07:59:07;;;;;;;4.22;2.47;;;23.70;99.90;;;;;;5053876;28;20037;-46
2023/10/24 08:01:34;;;;;;;8.07;2.22;;;23.70;99.90;;;;;;5050537;28;20045;-47
2023/10/24 08:03:59;;;;;;;5.20;2.13;;;23.70;99.90;;;;;;5045458;28;20025;-46
2023/10/24 08:06:26;;;;;;;2.75;1.90;;;23.70;99.90;;;;;;5044649;28;20332;-46
2023/10/24 08:08:51;;;;;;;4.53;1.92;;;23.80;99.90;;;;;;5060018;28;20033;-46
2023/10/24 08:11:17;;;;;;;4.50;2.10;;;23.80;99.90;;;;;;5052828;28;20026;-47
2023/10/24 08:13:43;;;;;;;4.90;2.13;;;23.80;99.90;;;;;;5039730;28;20037;-46
2023/10/24 08:16:09;;;;;;;5.43;2.60;;;23.90;99.90;;;;;;5055780;28;20399;-46
2023/10/24 08:18:35;;;;;;;4.40;2.22;;;23.90;99.90;;;;;;5052317;28;20033;-46
2023/10/24 08:21:01;;;;;;;5.07;2.30;;;23.90;99.90;;;;;;5051688;28;20017;-46
2023/10/24 08:23:30;;;;;;;4.13;2.15;;;23.90;99.90;;;;;;5041154;28;20033;-46
2023/10/24 08:25:59;;;;;;;12.32;2.78;;;23.90;99.90;;;;;;5053228;28;20013;-46
2023/10/24 08:28:24;;;;;;;3.50;2.10;;;23.90;99.90;;;;;;5050586;28;20384;-46
2023/10/24 08:30:50;;;;;;;5.55;2.42;;;24.00;99.90;;;;;;5045131;28;20024;-44
2023/10/24 08:33:18;;;;;;;4.10;1.92;;;24.00;99.90;;;;;;5039421;28;20395;-45
2023/10/24 08:35:47;;;;;;;4.72;2.03;;;24.00;99.90;;;;;;5034543;28;20350;-45
2023/10/24 08:38:13;;;;;;;3.00;1.88;;;24.00;99.90;;;;;;5051013;28;20385;-45
2023/10/24 08:40:40;;;;;;;4.93;2.08;;;24.00;99.90;;;;;;5039681;28;20026;-45
2023/10/24 08:43:08;;;;;;;;;;;24.10;99.90;;;;;;5051928;28;20512;-46
2023/10/24 08:45:35;;;;;;;5.57;1.90;;;24.10;99.90;;;;;;5054785;28;19905;-46
2023/10/24 08:48:02;;;;;;;8.30;2.38;;;24.10;99.90;;;;;;5052073;28;20031;-46
2023/10/24 08:50:28;;;;;;;3.45;1.60;;;24.10;99.90;;;;;;5035541;28;20083;-46
2023/10/24 08:52:54;;;;;;;5.78;2.05;;;24.20;99.90;;;;;;5051347;28;20076;-46
2023/10/24 08:55:20;;;;;;;5.20;2.38;;;24.20;99.90;;;;;;5050028;28;20127;-46
2023/10/24 08:57:47;;;;;;;4.35;2.08;;;24.20;99.90;;;;;;5045969;28;20433;-46
2023/10/24 09:00:14;;;;;;;3.90;2.30;;;24.30;99.90;;;;;;5044902;28;20040;-46
2023/10/24 09:02:44;;;;;;;6.78;2.38;;;24.30;99.90;;;;;;5052488;28;20363;-46
2023/10/24 09:05:12;;;;;;;5.75;1.90;;;24.30;99.90;;;;;;5033123;28;20033;-46
2023/10/24 09:07:38;;;;;;;4.20;2.30;;;24.30;99.90;;;;;;5051085;28;20025;-46
2023/10/24 09:10:04;;;;;;;3.63;1.90;;;24.30;99.90;;;;;;5051913;28;20067;-47
2023/10/24 09:12:32;;;;;;;7.85;2.65;;;24.40;99.90;;;;;;5050841;28;20107;-47
2023/10/24 09:14:59;;;;;;;3.15;1.73;;;24.40;99.90;;;;;;5051858;28;20384;-47
2023/10/24 09:17:25;;;;;;;7.00;3.33;;;24.40;99.90;;;;;;5051210;28;20060;-47
2023/10/24 09:19:52;;;;;;;4.82;1.80;;;24.40;99.90;;;;;;5051710;28;20025;-46
2023/10/24 09:22:18;;;;;;;4.43;2.08;;;24.50;99.90;;;;;;5051921;28;20126;-47
2023/10/24 09:24:47;;;;;;;5.35;2.60;;;24.50;99.90;;;;;;5051841;28;20021;-47
2023/10/24 09:27:14;;;;;;;3.55;1.80;;;24.50;99.90;;;;;;5051200;28;20473;-47
2023/10/24 09:29:40;;;;;;;5.85;1.90;;;24.50;99.90;;;;;;5051542;28;20115;-47
2023/10/24 09:32:06;;;;;;;8.52;2.42;;;24.60;99.90;;;;;;5051538;28;20066;-47
2023/10/24 09:34:33;;;;;;;5.60;1.73;;;24.60;99.90;;;;;;5051673;28;20029;-47
2023/10/24 09:37:06;;;;;;;7.50;1.65;;;24.70;99.90;;;;;;5051299;28;20116;-47
2023/10/24 09:39:33;;;;;;;3.90;1.30;;;24.70;99.90;;;;;;5051583;28;20040;-46
2023/10/24 09:41:59;;;;;;;4.88;1.92;;;24.70;99.90;;;;;;5051349;28;20061;-45
2023/10/24 09:44:26;;;;;;;5.97;1.85;;;24.70;99.90;;;;;;5033222;28;20065;-47
2023/10/24 09:46:53;;;;;;;3.08;1.10;;;24.70;99.90;;;;;;5051570;28;20053;-48
2023/10/24 09:49:21;;;;;;;4.75;1.00;;;24.70;99.90;;;;;;5051436;28;20020;-48
2023/10/24 09:51:46;;;;;;;;;;;24.70;99.90;;;;;;5051988;28;20462;-47
2023/10/24 09:54:13;;;;;;;0.98;0.30;;;24.70;99.90;;;;;;5050989;28;19920;-48
2023/10/24 09:56:39;;;;;;;4.25;1.05;;;24.70;99.90;;;;;;5032980;28;20029;-48
2023/10/24 09:59:07;;;;;;;2.38;0.60;;;24.70;99.90;;;;;;5051261;28;20039;-48
2023/10/24 10:01:33;;;;;;;2.50;0.43;;;24.70;99.90;;;;;;5051055;28;20045;-47
2023/10/24 10:04:00;;;;;;;2.85;0.70;;;24.60;99.90;;;;;;5051248;28;20112;-48
2023/10/24 10:06:30;;;;;;;5.10;0.93;;;24.60;99.90;;;;;;5050934;28;20056;-47
2023/10/24 10:09:00;;;;;;;1.38;0.45;;;24.60;99.90;;;;;;5051298;28;20064;-46
2023/10/24 10:11:32;;;;;;;5.18;0.60;;;24.60;99.90;;;;;;5044116;28;20025;-46
2023/10/24 10:14:09;;;;;;;4.53;0.75;;;24.60;99.90;;;;;;5048809;28;20067;-46
2023/10/24 10:17:21;;;;;;;3.15;0.35;;;24.50;99.90;;;;;;5046487;28;20520;-46
2023/10/24 10:20:21;;;;;;;1.98;0.55;;;24.50;99.90;;;;;;5035499;28;20045;-45
2023/10/24 10:23:13;;;;;;;5.07;0.65;;;24.50;99.90;;;;;;5021271;28;20033;-46
2023/10/24 10:25:51;;;;;;;4.70;0.60;;;24.40;99.90;;;;;;5023806;28;20111;-45
2023/10/24 10:28:47;;;;;;;5.05;0.50;;;24.40;99.90;;;;;;5051231;28;20083;-45
2023/10/24 10:31:39;;;;;;;2.58;0.65;;;24.30;99.90;;;;;;5051586;28;20020;-46
2023/10/24 10:34:05;;;;;;;4.10;1.00;;;24.30;99.90;;;;;;5052832;28;20123;-45
2023/10/24 10:36:31;;;;;;;2.40;0.50;;;24.30;99.90;;;;;;5049010;28;20029;-46
2023/10/24 10:39:00;;;;;;;4.38;1.35;;;24.30;99.90;;;;;;5030901;28;20293;-45
2023/10/24 10:41:28;;;;;;;2.42;0.93;;;24.30;99.90;;;;;;5052387;28;20588;-45
2023/10/24 10:43:59;;;;;;;5.40;0.68;;;24.30;99.90;;;;;;5051841;28;20389;-46
2023/10/24 10:46:29;;;;;;;4.03;0.70;;;24.20;99.90;;;;;;5051880;28;20049;-46
2023/10/24 10:49:03;;;;;;;3.63;0.40;;;24.20;99.90;;;;;;5052022;28;20033;-46
2023/10/24 10:51:36;;;;;;;3.45;0.55;;;24.20;99.90;;;;;;5049675;28;20392;-45
2023/10/24 10:54:21;;;;;;;2.10;0.68;;;24.20;99.90;;;;;;5048756;28;20493;-45
2023/10/24 10:56:50;;;;;;;1.25;0.45;;;24.20;99.90;;;;;;5051958;28;20013;-45
2023/10/24 10:59:58;;;;;;;4.38;0.50;;;24.20;99.90;;;;;;5051699;28;20124;-46
2023/10/24 11:02:59;;;;;;;2.65;0.40;;;24.20;99.90;;;;;;5040306;28;20584;-45
2023/10/24 11:05:37;;;;;;;3.80;0.52;;;24.20;99.90;;;;;;5048011;28;20052;-45
2023/10/24 11:08:06;;;;;;;2.70;0.50;;;24.30;99.90;;;;;;5030076;28;20037;-45
2023/10/24 11:10:55;;;;;;;3.60;0.28;;;24.30;99.90;;;;;;5045968;28;20036;-45
2023/10/24 11:13:40;;;;;;;1.63;0.40;;;24.30;99.90;;;;;;5048819;28;20037;-45
2023/10/24 11:16:11;;;;;;;1.65;0.40;;;24.40;99.90;;;;;;5050753;28;20377;-45
2023/10/24 11:18:37;;;;;;;2.92;0.60;;;24.40;99.90;;;;;;5050835;28;20055;-44
2023/10/24 11:21:06;;;;;;;3.30;0.57;;;24.50;99.90;;;;;;5050815;28;20028;-44
2023/10/24 11:23:33;;;;;;;4.03;1.25;;;24.50;99.90;;;;;;5050556;28;20029;-45
2023/10/24 11:26:00;;;;;;;3.83;1.25;;;24.50;99.90;;;;;;5050811;28;20033;-44
2023/10/24 11:28:27;;;;;;;1.90;0.40;;;24.50;99.90;;;;;;5050686;28;20473;-45
2023/10/24 11:30:56;;;;;;;3.45;0.75;;;24.50;99.90;;;;;;5050466;28;20025;-45
2023/10/24 11:33:23;;;;;;;4.90;1.80;;;24.50;99.90;;;;;;5050541;28;20076;-44
2023/10/24 11:35:49;;;;;;;2.85;1.23;;;24.50;99.90;;;;;;5049613;28;20017;-44
2023/10/24 11:38:16;;;;;;;3.47;1.00;;;24.50;99.90;;;;;;5050727;28;20041;-45
2023/10/24 11:40:46;;;;;;;2.03;0.77;;;24.60;99.90;;;;;;5050276;28;20028;-45
2023/10/24 11:43:13;;;;;;;3.15;0.95;;;24.50;99.90;;;;;;5050038;28;20049;-44
2023/10/24 11:45:39;;;;;;;8.55;1.50;;;24.50;99.90;;;;;;5050647;28;20029;-45
2023/10/24 11:48:06;;;;;;;3.70;2.25;;;24.50;99.90;;;;;;5048347;28;20032;-44
2023/10/24 11:50:45;;;;;;;2.83;1.05;;;24.50;99.90;;;;;;5049872;28;20031;-45
2023/10/24 11:53:29;;;;;;;1.45;0.70;;;24.40;99.90;;;;;;5030833;28;20393;-44
2023/10/24 11:55:56;;;;;;;4.50;1.00;;;24.40;99.90;;;;;;5049907;28;20013;-44
2023/10/24 11:58:23;;;;;;;4.70;0.53;;;24.40;99.90;;;;;;5042889;28;20026;-44
2023/10/24 12:00:50;;;;;;;5.88;0.70;;;24.30;99.90;;;;;;5043380;28;20328;-44
2023/10/24 12:03:16;;;;;;;3.93;0.70;;;24.30;99.90;;;;;;5037265;28;20061;-48
2023/10/24 12:05:52;;;;;;;2.83;0.77;;;24.40;99.90;;;;;;5042975;28;20107;-44
2023/10/24 12:08:23;;;;;;;9.63;1.02;;;24.40;99.90;;;;;;5039740;28;20477;-44
2023/10/24 12:10:55;;;;;;;2.85;0.70;;;24.50;99.90;;;;;;5015396;28;20108;-45
2023/10/24 12:13:23;;;;;;;5.78;1.00;;;24.60;99.90;;;;;;5037348;28;20033;-45
2023/10/24 12:15:49;;;;;;;;;;;24.70;99.90;;;;;;5026443;28;20028;-45
2023/10/24 12:18:15;;;;;;;4.05;1.20;;;24.70;99.90;;;;;;5036635;28;19909;-45
2023/10/24 12:20:41;;;;;;;4.75;2.10;;;24.80;99.90;;;;;;5039214;28;20023;-44
2023/10/24 12:23:06;;;;;;;6.68;2.92;;;24.90;99.90;;;;;;5040691;28;20100;-45
2023/10/24 12:25:33;;;;;;;7.38;5.28;;;25.00;99.90;;;;;;5042786;28;20025;-45
2023/10/24 12:27:59;;;;;;;6.72;5.65;;;25.00;99.90;;;;;;5042586;28;20087;-46
2023/10/24 12:30:26;;;;;;;4.45;3.53;;;25.10;99.90;;;;;;5039493;28;20041;-46
2023/10/24 12:32:52;;;;;;;13.13;3.38;;;25.10;99.90;;;;;;5041457;28;20358;-44
2023/10/24 12:35:19;;;;;;;4.43;2.13;;;25.20;99.90;;;;;;5043404;28;20036;-45
2023/10/24 12:37:45;;;;;;;9.70;2.25;;;25.20;99.90;;;;;;5040002;28;20040;-44
2023/10/24 12:40:11;;;;;;;3.65;2.10;;;25.30;99.90;;;;;;5038962;28;20046;-45
2023/10/24 12:42:36;;;;;;;6.57;3.30;;;25.30;99.90;;;;;;5045557;28;20071;-45
2023/10/24 12:45:03;;;;;;;11.30;4.63;;;25.40;99.90;;;;;;5036132;28;20071;-44
2023/10/24 12:47:29;;;;;;;10.98;6.07;;;25.40;99.90;;;;;;5040816;28;20512;-44
2023/10/24 12:49:56;;;;;;;7.90;3.67;;;25.40;99.90;;;;;;5039602;28;20068;-44